LTAT/MLX METAR and TAF weather

Enter ICAO airport designator
Station Type Date Time Source
LTAT METAR 2021/07/26 13:20 UTC NOAA

LTAT 261320Z 21015KT 9999 FEW040 37/02 Q1009 NOSIG


Station Type Date Time Source
LTAT Decoded METAR 2021/07/26 13:20 UTC NOAA

Malatya / Erhac, Turkey (LTAT) 38-26N 038-05E 849M
Jul 26, 2021 - 09:20 AM EDT / 2021.07.26 1320 UTC
Wind: from the SSW (210 degrees) at 17 MPH (15 KT):0
Visibility: greater than 7 mile(s):0
Sky conditions: mostly clear
Temperature: 98 F (37 C)
Dew Point: 35 F (2 C)
Relative Humidity: 11%
Pressure (altimeter): 29.80 in. Hg (1009 hPa)
ob: LTAT 261320Z 21015KT 9999 FEW040 37/02 Q1009 NOSIG
cycle: 13

Station Type Date Time Source
LTAT TAF 2021/07/26 12:03 UTC NOAA

TAF LTAT 261040Z 2612/2712 21009KT 9999 FEW040
BECMG 2615/2617 31018G30KT CAVOK
BECMG 2623/2701 30009KT
BECMG 2704/2706 SCT040
TEMPO 2707/2711 30015G28KT

Example: see airport list